Time;durP1;ratioP1;P1;durP2;ratioP2;P2;SDS_P1;SDS_P2;PMS_P1;PMS_P2;Temp;Humidity;BMP_temperature;BMP_pressure;BME280_temperature;BME280_humidity;BME280_pressure;Samples;Min_cycle;Max_cycle;Signal;HPM_P1;HPM_P2
2023/06/17 00:02:15;;;;;;;7.63;6.53;;;14.40;1.00;;;;;;5072445;28;20044;-67
2023/06/17 00:04:41;;;;;;;8.57;6.10;;;14.40;1.00;;;;;;5072384;28;20028;-67
2023/06/17 00:07:06;;;;;;;9.50;6.40;;;14.30;6.90;;;;;;5072782;28;20024;-67
2023/06/17 00:09:32;;;;;;;8.23;6.25;;;14.30;99.90;;;;;;5073288;28;20059;-67
2023/06/17 00:11:57;;;;;;;7.35;6.40;;;14.30;99.90;;;;;;5076258;28;20385;-67
2023/06/17 00:14:24;;;;;;;9.27;6.35;;;14.20;99.90;;;;;;5075965;28;20021;-67
2023/06/17 00:16:50;;;;;;;7.35;5.80;;;14.10;99.90;;;;;;5076048;28;20470;-67
2023/06/17 00:19:16;;;;;;;9.05;6.35;;;14.10;99.90;;;;;;5076209;28;20021;-67
2023/06/17 00:21:43;;;;;;;8.40;6.40;;;14.10;99.90;;;;;;5076040;28;20029;-67
2023/06/17 00:24:12;;;;;;;8.75;6.10;;;14.00;1.00;;;;;;5076169;28;20036;-67
2023/06/17 00:26:37;;;;;;;8.55;6.90;;;14.00;1.00;;;;;;5076135;28;20490;-67
2023/06/17 00:29:05;;;;;;;7.53;6.45;;;13.90;83.50;;;;;;5075899;28;20149;-67
2023/06/17 00:31:30;;;;;;;10.73;6.82;;;13.90;99.90;;;;;;5075555;28;20551;-66
2023/06/17 00:33:56;;;;;;;7.70;6.70;;;13.90;1.00;;;;;;5075886;28;20103;-67
2023/06/17 00:36:21;;;;;;;11.27;7.30;;;13.90;1.00;;;;;;5075405;28;20056;-67
2023/06/17 00:38:47;;;;;;;12.45;6.93;;;13.80;1.00;;;;;;5075845;28;20024;-66
2023/06/17 00:41:13;;;;;;;8.85;7.10;;;13.80;1.00;;;;;;5075805;28;20029;-67
2023/06/17 00:43:38;;;;;;;8.82;6.80;;;13.70;99.90;;;;;;5075627;28;20036;-67
2023/06/17 00:46:04;;;;;;;8.63;7.13;;;13.70;99.90;;;;;;5075629;28;20047;-67
2023/06/17 00:48:29;;;;;;;9.32;6.63;;;13.70;99.90;;;;;;5075682;28;20016;-66
2023/06/17 00:51:01;;;;;;;10.80;7.20;;;13.70;99.90;;;;;;5075572;28;20032;-67
2023/06/17 00:53:27;;;;;;;10.10;7.60;;;13.60;1.00;;;;;;5075502;28;20116;-66
2023/06/17 00:55:53;;;;;;;8.15;6.53;;;13.60;1.00;;;;;;5075506;28;20024;-66
2023/06/17 00:58:19;;;;;;;11.18;6.57;;;13.50;1.10;;;;;;5075285;28;20031;-66
2023/06/17 01:00:45;;;;;;;7.80;6.72;;;13.50;99.90;;;;;;5075441;28;20029;-66
2023/06/17 01:03:10;;;;;;;9.20;7.18;;;13.50;99.90;;;;;;5075060;28;20047;-67
2023/06/17 01:05:38;;;;;;;8.10;6.70;;;13.40;1.00;;;;;;5075440;28;20032;-66
2023/06/17 01:08:33;;;;;;;8.35;7.00;;;13.50;1.00;;;;;;5074989;28;20399;-66
2023/06/17 01:11:12;;;;;;;11.35;7.35;;;13.40;1.00;;;;;;5074751;28;20028;-67
2023/06/17 01:13:41;;;;;;;7.72;6.88;;;13.40;1.00;;;;;;5075009;28;20024;-67
2023/06/17 01:16:08;;;;;;;11.25;6.95;;;13.40;99.90;;;;;;5075257;28;20086;-66
2023/06/17 01:18:34;;;;;;;9.88;7.40;;;13.30;99.90;;;;;;5075073;28;20090;-67
2023/06/17 01:21:03;;;;;;;10.02;7.07;;;13.30;1.00;;;;;;5074985;28;20024;-66
2023/06/17 01:23:34;;;;;;;10.45;7.68;;;13.30;1.00;;;;;;5074425;28;20032;-66
2023/06/17 01:26:01;;;;;;;10.68;7.80;;;13.20;1.00;;;;;;5074645;28;20059;-66
2023/06/17 01:28:29;;;;;;;10.05;7.20;;;13.20;1.00;;;;;;5074867;28;20115;-67
2023/06/17 01:30:55;;;;;;;12.00;7.45;;;13.20;1.00;;;;;;5074462;28;20051;-66
2023/06/17 01:33:21;;;;;;;9.40;7.20;;;13.20;1.00;;;;;;5074704;28;20056;-66
2023/06/17 01:36:08;;;;;;;9.50;7.72;;;13.20;1.00;;;;;;5074277;28;20028;-67
2023/06/17 01:38:41;;;;;;;7.72;6.72;;;13.20;1.00;;;;;;5074808;28;20119;-66
2023/06/17 01:41:14;;;;;;;8.98;7.07;;;13.10;1.00;;;;;;5074298;28;20029;-66
2023/06/17 01:43:41;;;;;;;11.27;7.93;;;13.10;1.00;;;;;;5074468;28;20493;-67
2023/06/17 01:46:09;;;;;;;8.60;6.57;;;13.10;99.90;;;;;;5074344;28;20032;-66
2023/06/17 01:48:36;;;;;;;11.25;8.40;;;13.00;99.90;;;;;;5074474;28;20467;-67
2023/06/17 01:51:01;;;;;;;8.93;7.63;;;13.00;99.90;;;;;;5074116;28;20036;-66
2023/06/17 01:53:27;;;;;;;10.25;7.47;;;12.90;99.90;;;;;;5074394;28;20033;-66
2023/06/17 01:55:52;;;;;;;12.75;7.85;;;12.90;1.00;;;;;;5074118;28;20157;-66
2023/06/17 01:58:18;;;;;;;13.80;8.43;;;12.90;1.00;;;;;;5073862;28;20474;-66
2023/06/17 02:00:43;;;;;;;14.05;8.50;;;12.80;12.50;;;;;;5074207;28;20491;-66
2023/06/17 02:03:09;;;;;;;10.27;8.13;;;12.80;62.50;;;;;;5073577;28;20175;-67
2023/06/17 02:05:35;;;;;;;12.00;8.23;;;12.80;99.90;;;;;;5074068;28;20033;-66
2023/06/17 02:08:00;;;;;;;13.07;8.52;;;12.70;99.90;;;;;;5074025;28;20077;-66
2023/06/17 02:10:26;;;;;;;9.95;7.95;;;12.70;99.90;;;;;;5074045;28;20021;-66
2023/06/17 02:12:52;;;;;;;11.63;9.27;;;12.60;99.90;;;;;;5073951;28;20034;-66
2023/06/17 02:15:17;;;;;;;10.13;8.07;;;12.60;99.90;;;;;;5073584;28;20116;-66
2023/06/17 02:17:44;;;;;;;10.68;8.73;;;12.60;99.90;;;;;;5073638;28;20051;-67
2023/06/17 02:20:11;;;;;;;12.38;8.35;;;12.50;1.00;;;;;;5073514;28;20032;-67
2023/06/17 02:22:36;;;;;;;13.40;8.95;;;12.50;1.00;;;;;;5073747;28;20036;-66
2023/06/17 02:25:03;;;;;;;13.85;8.55;;;12.50;1.00;;;;;;5073663;28;20028;-67
2023/06/17 02:27:28;;;;;;;12.30;9.10;;;12.50;1.00;;;;;;5073629;28;20021;-66
2023/06/17 02:29:54;;;;;;;12.77;9.73;;;12.50;1.00;;;;;;5073685;28;20107;-66
2023/06/17 02:32:20;;;;;;;13.75;8.82;;;12.50;1.00;;;;;;5072912;28;20466;-66
2023/06/17 02:34:47;;;;;;;10.90;9.02;;;12.40;20.60;;;;;;5073519;28;20394;-67
2023/06/17 02:37:14;;;;;;;10.13;8.35;;;12.40;99.90;;;;;;5073472;28;20466;-66
2023/06/17 02:39:39;;;;;;;10.85;8.50;;;12.40;99.90;;;;;;5073567;28;20029;-66
2023/06/17 02:42:05;;;;;;;10.65;8.52;;;12.40;99.90;;;;;;5073607;28;20028;-67
2023/06/17 02:44:31;;;;;;;10.60;8.40;;;12.30;99.90;;;;;;5073527;28;20032;-66
2023/06/17 02:46:56;;;;;;;11.45;9.60;;;12.30;99.90;;;;;;5073525;28;20028;-66
2023/06/17 02:49:22;;;;;;;12.70;9.20;;;12.30;99.90;;;;;;5073518;28;20028;-66
2023/06/17 02:51:47;;;;;;;11.80;8.90;;;12.30;99.90;;;;;;5073400;28;20111;-66
2023/06/17 02:54:13;;;;;;;12.38;10.32;;;12.20;99.90;;;;;;5073430;28;20021;-66
2023/06/17 02:56:39;;;;;;;14.10;9.68;;;12.20;99.90;;;;;;5073508;28;20021;-66
2023/06/17 02:59:08;;;;;;;13.70;9.85;;;12.20;99.90;;;;;;5073596;28;20378;-66
2023/06/17 03:01:39;;;;;;;10.65;9.55;;;12.20;99.90;;;;;;5072981;28;20110;-66
2023/06/17 03:04:05;;;;;;;11.00;8.63;;;12.20;99.90;;;;;;5073058;28;20021;-66
2023/06/17 03:06:33;;;;;;;12.65;10.10;;;12.10;99.90;;;;;;5073292;28;20386;-66
2023/06/17 03:09:03;;;;;;;15.10;10.25;;;12.10;99.90;;;;;;5073183;28;20028;-66
2023/06/17 03:11:28;;;;;;;15.93;11.07;;;12.10;99.90;;;;;;5072870;28;20035;-66
2023/06/17 03:13:55;;;;;;;12.60;10.90;;;12.10;99.90;;;;;;5073311;28;20024;-66
2023/06/17 03:16:20;;;;;;;17.42;10.95;;;12.10;99.90;;;;;;5073164;28;20028;-66
2023/06/17 03:18:47;;;;;;;13.43;10.05;;;12.10;99.90;;;;;;5073224;28;20033;-66
2023/06/17 03:21:12;;;;;;;12.13;10.13;;;12.10;99.90;;;;;;5073286;28;20405;-67
2023/06/17 03:23:40;;;;;;;13.35;10.00;;;12.00;99.90;;;;;;5072957;28;20032;-66
2023/06/17 03:26:06;;;;;;;12.90;10.52;;;12.00;99.90;;;;;;5073219;28;20052;-66
2023/06/17 03:28:32;;;;;;;14.68;10.13;;;12.00;99.90;;;;;;5072830;28;20025;-66
2023/06/17 03:30:58;;;;;;;13.20;10.23;;;12.00;99.90;;;;;;5072600;28;20039;-66
2023/06/17 03:33:23;;;;;;;12.82;10.10;;;12.00;99.90;;;;;;5072820;28;20029;-66
2023/06/17 03:35:49;;;;;;;15.95;9.80;;;12.10;99.90;;;;;;5073097;28;20020;-67
2023/06/17 03:38:14;;;;;;;13.93;9.88;;;12.10;99.90;;;;;;5073234;28;20028;-66
2023/06/17 03:40:40;;;;;;;12.93;10.23;;;12.10;99.90;;;;;;5073153;28;20036;-66
2023/06/17 03:43:05;;;;;;;16.35;10.85;;;12.20;99.90;;;;;;5072778;28;20032;-66
2023/06/17 03:45:35;;;;;;;11.77;9.75;;;12.20;99.90;;;;;;5075107;28;20036;-66
2023/06/17 03:48:00;;;;;;;14.65;11.15;;;12.20;99.90;;;;;;5076769;28;20186;-66
2023/06/17 03:50:26;;;;;;;12.48;10.13;;;12.20;99.90;;;;;;5076686;28;20111;-66
2023/06/17 03:52:51;;;;;;;12.77;9.48;;;12.40;99.90;;;;;;5076499;28;20402;-66
2023/06/17 03:55:17;;;;;;;14.52;10.52;;;12.50;99.90;;;;;;5076648;28;20025;-66
2023/06/17 03:57:43;;;;;;;13.55;10.10;;;12.50;99.90;;;;;;5076571;28;20020;-66
2023/06/17 04:00:10;;;;;;;14.80;10.25;;;12.50;99.90;;;;;;5076539;28;20024;-66
2023/06/17 04:02:35;;;;;;;14.32;9.32;;;12.60;99.90;;;;;;5076223;28;20049;-66
2023/06/17 04:05:02;;;;;;;13.32;10.13;;;12.60;99.90;;;;;;5076398;28;20036;-66
2023/06/17 04:07:28;;;;;;;12.02;10.40;;;12.70;99.90;;;;;;5076233;28;20052;-66
2023/06/17 04:09:54;;;;;;;12.45;10.25;;;12.80;99.90;;;;;;5075908;28;20037;-66
2023/06/17 04:12:20;;;;;;;13.05;10.02;;;12.90;99.90;;;;;;5076204;28;20474;-66
2023/06/17 04:14:45;;;;;;;13.05;9.80;;;13.00;99.90;;;;;;5076281;28;20104;-66
2023/06/17 04:17:11;;;;;;;11.30;9.52;;;13.10;99.90;;;;;;5076264;28;20040;-67
2023/06/17 04:19:37;;;;;;;13.23;10.50;;;13.20;99.90;;;;;;5076265;28;20029;-66
2023/06/17 04:22:05;;;;;;;12.38;10.27;;;13.30;99.90;;;;;;5076170;28;20020;-66
2023/06/17 04:24:30;;;;;;;15.57;10.73;;;13.30;99.90;;;;;;5076136;28;20378;-66
2023/06/17 04:26:56;;;;;;;14.38;10.35;;;13.40;99.90;;;;;;5076003;28;20025;-66
2023/06/17 04:29:21;;;;;;;14.05;11.55;;;13.60;99.90;;;;;;5075576;28;20035;-66
2023/06/17 04:31:47;;;;;;;21.08;11.82;;;13.70;99.90;;;;;;5075842;28;20130;-66
2023/06/17 04:34:21;;;;;;;13.98;11.60;;;14.20;1.00;;;;;;5075736;28;20111;-66
2023/06/17 04:36:49;;;;;;;16.15;11.02;;;14.60;99.90;;;;;;5075555;28;20021;-67
2023/06/17 04:39:15;;;;;;;16.38;10.75;;;15.00;1.00;;;;;;5075925;28;20074;-67
2023/06/17 04:41:44;;;;;;;15.60;11.00;;;16.10;1.00;;;;;;5075732;28;20023;-67
2023/06/17 04:44:09;;;;;;;13.73;9.82;;;17.70;99.90;;;;;;5075663;28;20474;-67
2023/06/17 04:46:35;;;;;;;10.35;9.27;;;18.90;18.40;;;;;;5075698;28;20104;-67
2023/06/17 04:49:02;;;;;;;9.90;8.90;;;20.10;99.90;;;;;;5075336;28;20025;-67
2023/06/17 04:51:28;;;;;;;11.50;9.30;;;21.00;99.90;;;;;;5075641;28;20029;-67
2023/06/17 04:53:54;;;;;;;11.13;8.90;;;22.10;52.60;;;;;;5075309;28;20074;-67
2023/06/17 04:56:19;;;;;;;10.20;9.15;;;22.20;1.00;;;;;;5075087;28;20028;-67
2023/06/17 04:58:45;;;;;;;10.32;8.50;;;22.60;1.00;;;;;;5075583;28;20056;-68
2023/06/17 05:01:11;;;;;;;9.65;8.52;;;22.80;1.00;;;;;;5075404;28;20486;-67
2023/06/17 05:03:37;;;;;;;12.27;8.70;;;23.00;1.00;;;;;;5075131;28;20037;-66
2023/06/17 05:06:02;;;;;;;10.63;8.48;;;22.60;1.00;;;;;;5075385;28;20122;-65
2023/06/17 05:08:28;;;;;;;10.52;8.63;;;22.70;1.00;;;;;;5074886;28;20029;-65
2023/06/17 05:10:53;;;;;;;9.35;8.55;;;22.10;1.00;;;;;;5075270;28;20027;-67
2023/06/17 05:13:19;;;;;;;15.25;8.75;;;21.60;1.00;;;;;;5075036;28;20154;-67
2023/06/17 05:15:44;;;;;;;10.98;9.75;;;21.50;1.00;;;;;;5075232;28;20060;-67
2023/06/17 05:18:10;;;;;;;11.75;8.45;;;21.00;1.00;;;;;;5075061;28;20031;-67
2023/06/17 05:20:36;;;;;;;16.63;10.40;;;20.60;1.00;;;;;;5074654;28;20434;-67
2023/06/17 05:23:01;;;;;;;12.98;10.32;;;20.30;1.00;;;;;;5075056;28;20111;-67
2023/06/17 05:25:27;;;;;;;14.13;9.80;;;20.30;1.00;;;;;;5074810;28;20116;-67
2023/06/17 05:27:52;;;;;;;14.65;9.75;;;20.60;1.00;;;;;;5074856;28;20025;-67
2023/06/17 05:30:18;;;;;;;18.00;9.70;;;21.40;1.00;;;;;;5074915;28;20032;-67
2023/06/17 05:32:43;;;;;;;14.48;10.30;;;21.50;1.00;;;;;;5074394;28;20078;-68
2023/06/17 05:35:09;;;;;;;12.50;9.18;;;22.10;1.00;;;;;;5074682;28;20036;-67
2023/06/17 05:37:34;;;;;;;11.00;8.88;;;22.70;1.00;;;;;;5074677;28;20047;-67
2023/06/17 05:40:00;;;;;;;12.70;10.27;;;23.20;1.00;;;;;;5074717;28;20060;-67
2023/06/17 05:42:25;;;;;;;10.18;9.18;;;22.20;1.00;;;;;;5074644;28;20394;-67
2023/06/17 05:44:51;;;;;;;10.00;8.98;;;22.50;1.00;;;;;;5074679;28;20036;-67
2023/06/17 05:47:16;;;;;;;12.45;9.98;;;22.60;1.00;;;;;;5074538;28;20033;-67
2023/06/17 05:49:42;;;;;;;15.85;10.32;;;21.90;1.00;;;;;;5074566;28;20033;-68
2023/06/17 05:52:07;;;;;;;14.52;10.00;;;22.20;1.00;;;;;;5074263;28;20033;-67
2023/06/17 05:54:33;;;;;;;14.52;9.45;;;22.80;1.00;;;;;;5074154;28;20031;-67
2023/06/17 05:56:58;;;;;;;11.45;9.75;;;23.90;1.00;;;;;;5074149;28;20493;-67
2023/06/17 05:59:26;;;;;;;11.45;10.25;;;23.60;1.00;;;;;;5074087;28;20021;-67
2023/06/17 06:01:52;;;;;;;11.20;10.00;;;23.00;1.00;;;;;;5074008;28;20444;-67
2023/06/17 06:04:18;;;;;;;11.07;9.95;;;23.20;1.00;;;;;;5074265;28;20024;-67
2023/06/17 06:06:43;;;;;;;13.43;10.30;;;23.40;1.00;;;;;;5073786;28;20028;-67
2023/06/17 06:09:08;;;;;;;12.15;10.18;;;23.70;1.00;;;;;;5073706;28;20390;-67
2023/06/17 06:11:34;;;;;;;10.80;9.88;;;23.70;1.00;;;;;;5073996;28;20111;-67
2023/06/17 06:13:59;;;;;;;14.63;9.65;;;24.10;1.00;;;;;;5073576;28;20024;-67
2023/06/17 06:16:25;;;;;;;13.50;10.23;;;23.60;1.00;;;;;;5073945;28;20032;-67
2023/06/17 06:18:50;;;;;;;11.48;10.27;;;22.50;1.00;;;;;;5073938;28;20075;-67
2023/06/17 06:21:16;;;;;;;11.35;10.25;;;22.20;1.00;;;;;;5073758;28;20025;-67
2023/06/17 06:23:41;;;;;;;12.75;10.68;;;22.90;1.00;;;;;;5073997;28;20028;-67
2023/06/17 06:26:07;;;;;;;11.27;10.13;;;23.00;1.00;;;;;;5073749;28;20033;-67
2023/06/17 06:28:32;;;;;;;11.43;10.32;;;23.00;1.00;;;;;;5073525;28;20025;-67
2023/06/17 06:30:58;;;;;;;14.77;11.20;;;22.40;1.00;;;;;;5073351;28;20031;-67
2023/06/17 06:33:23;;;;;;;13.23;10.50;;;22.40;1.00;;;;;;5073209;28;20024;-67
2023/06/17 06:35:49;;;;;;;12.38;9.82;;;22.80;1.00;;;;;;5073710;28;20028;-67
2023/06/17 06:38:15;;;;;;;13.25;9.65;;;23.70;1.00;;;;;;5073611;28;20074;-67
2023/06/17 06:40:40;;;;;;;13.90;10.20;;;23.60;1.00;;;;;;5073554;28;20025;-67
2023/06/17 06:43:06;;;;;;;13.48;10.55;;;23.60;1.00;;;;;;5073290;28;20042;-67
2023/06/17 06:45:31;;;;;;;12.60;9.90;;;24.60;1.00;;;;;;5073691;28;20064;-67
2023/06/17 06:47:57;;;;;;;10.93;9.90;;;23.90;1.00;;;;;;5073517;28;20054;-68
2023/06/17 06:50:23;;;;;;;11.95;9.90;;;23.70;1.00;;;;;;5073530;28;20066;-67
2023/06/17 06:52:49;;;;;;;13.43;8.85;;;23.70;1.00;;;;;;5073396;28;20107;-67
2023/06/17 06:55:15;;;;;;;10.70;8.50;;;24.40;1.00;;;;;;5073053;28;20017;-67
2023/06/17 06:57:40;;;;;;;11.75;8.05;;;25.30;1.00;;;;;;5073249;28;20063;-67
2023/06/17 07:00:11;;;;;;;9.07;7.57;;;25.40;1.00;;;;;;5073188;28;20032;-67
2023/06/17 07:02:37;;;;;;;10.20;8.95;;;26.50;1.00;;;;;;5072870;28;20056;-67
2023/06/17 07:05:04;;;;;;;8.05;7.20;;;25.80;99.90;;;;;;5073390;28;20032;-67
2023/06/17 07:07:30;;;;;;;8.73;6.88;;;25.70;99.90;;;;;;5073118;28;20032;-67
2023/06/17 07:09:55;;;;;;;9.50;6.78;;;26.50;99.90;;;;;;5073080;28;20047;-68
2023/06/17 07:12:21;;;;;;;8.80;6.55;;;27.10;99.90;;;;;;5073243;28;20029;-67
2023/06/17 07:14:46;;;;;;;9.48;6.70;;;27.00;99.90;;;;;;5073076;28;20024;-67
2023/06/17 07:17:13;;;;;;;6.53;5.57;;;26.50;99.90;;;;;;5073361;28;20445;-67
2023/06/17 07:19:38;;;;;;;9.15;5.65;;;26.30;99.90;;;;;;5076198;28;20107;-67
2023/06/17 07:22:04;;;;;;;9.63;6.32;;;27.00;99.90;;;;;;5077254;28;20477;-67
2023/06/17 07:24:30;;;;;;;8.52;6.45;;;26.30;99.90;;;;;;5077268;28;20021;-69
2023/06/17 07:26:55;;;;;;;8.48;5.63;;;26.60;99.90;;;;;;5077069;28;20028;-67
2023/06/17 07:29:21;;;;;;;6.32;5.72;;;27.30;99.90;;;;;;5077201;28;20037;-67
2023/06/17 07:31:46;;;;;;;6.93;5.80;;;27.50;99.90;;;;;;5077039;28;20074;-67
2023/06/17 07:34:12;;;;;;;6.30;5.30;;;27.90;99.90;;;;;;5076869;28;20040;-67
2023/06/17 07:36:37;;;;;;;10.00;5.90;;;27.70;99.90;;;;;;5076822;28;20509;-68
2023/06/17 07:39:03;;;;;;;9.93;6.70;;;28.20;99.90;;;;;;5076837;28;20406;-68
2023/06/17 07:41:28;;;;;;;8.48;6.00;;;27.20;99.90;;;;;;5076590;28;20028;-67
2023/06/17 07:43:54;;;;;;;8.65;6.47;;;26.60;99.90;;;;;;5076488;28;20028;-67
2023/06/17 07:46:19;;;;;;;7.85;6.03;;;26.90;99.90;;;;;;5076749;28;20107;-68
2023/06/17 07:48:45;;;;;;;8.02;6.40;;;27.90;1.00;;;;;;5076837;28;20154;-67
2023/06/17 07:51:10;;;;;;;7.07;6.38;;;27.60;1.00;;;;;;5076650;28;20056;-68
2023/06/17 07:53:36;;;;;;;11.90;6.22;;;26.70;1.00;;;;;;5076482;28;20397;-67
2023/06/17 07:56:02;;;;;;;7.95;5.82;;;27.30;1.00;;;;;;5076602;28;20082;-68
2023/06/17 07:58:27;;;;;;;6.35;5.68;;;28.60;1.00;;;;;;5076628;28;20067;-67
2023/06/17 08:00:53;;;;;;;11.02;6.32;;;28.40;1.00;;;;;;5076386;28;20024;-68
2023/06/17 08:03:18;;;;;;;8.25;6.10;;;28.70;1.00;;;;;;5076241;28;20048;-68
2023/06/17 08:05:44;;;;;;;8.43;5.85;;;29.40;99.90;;;;;;5076314;28;20051;-68
2023/06/17 08:08:09;;;;;;;6.78;6.07;;;29.30;1.00;;;;;;5076490;28;20102;-67
2023/06/17 08:10:35;;;;;;;9.93;6.63;;;27.90;1.00;;;;;;5076134;28;20035;-68
2023/06/17 08:13:01;;;;;;;7.57;6.28;;;27.50;1.00;;;;;;5076020;28;20040;-68
2023/06/17 08:15:27;;;;;;;7.78;6.38;;;28.40;1.00;;;;;;5076081;28;20125;-67
2023/06/17 08:17:52;;;;;;;8.55;6.40;;;27.60;99.90;;;;;;5076141;28;20024;-67
2023/06/17 08:20:19;;;;;;;7.50;6.25;;;27.80;1.00;;;;;;5076085;28;20020;-67
2023/06/17 08:22:44;;;;;;;8.57;6.72;;;27.00;1.00;;;;;;5075937;28;20032;-68
2023/06/17 08:25:10;;;;;;;7.05;6.35;;;27.20;1.00;;;;;;5075826;28;20390;-68
2023/06/17 08:27:37;;;;;;;12.20;6.93;;;26.90;1.00;;;;;;5075786;28;20031;-68
2023/06/17 08:30:03;;;;;;;8.07;6.10;;;27.30;1.00;;;;;;5075438;28;20557;-67
2023/06/17 08:32:30;;;;;;;7.72;6.30;;;26.90;1.00;;;;;;5075603;28;20025;-67
2023/06/17 08:34:55;;;;;;;6.35;5.75;;;27.10;1.00;;;;;;5075953;28;20059;-68
2023/06/17 08:37:21;;;;;;;6.75;6.07;;;27.50;1.00;;;;;;5075632;28;20482;-67
2023/06/17 08:39:46;;;;;;;7.63;6.13;;;28.10;99.90;;;;;;5075719;28;20028;-68
2023/06/17 08:42:12;;;;;;;6.50;5.60;;;28.20;1.00;;;;;;5075849;28;20033;-67
2023/06/17 08:44:42;;;;;;;6.90;6.30;;;28.40;1.00;;;;;;5075536;28;20024;-67
2023/06/17 08:47:13;;;;;;;9.80;6.25;;;28.20;1.00;;;;;;5075496;28;20074;-68
2023/06/17 08:49:40;;;;;;;7.82;5.78;;;28.50;1.00;;;;;;5075401;28;20434;-68
2023/06/17 08:52:11;;;;;;;6.65;5.57;;;28.90;1.00;;;;;;5075390;28;20031;-66
2023/06/17 08:54:40;;;;;;;6.70;5.72;;;29.00;1.00;;;;;;5075377;28;20021;-67
2023/06/17 08:57:09;;;;;;;7.95;5.63;;;28.20;1.00;;;;;;5075324;28;20478;-68
2023/06/17 08:59:34;;;;;;;9.65;5.97;;;28.30;1.00;;;;;;5075145;28;20024;-68
2023/06/17 09:02:01;;;;;;;7.13;5.85;;;28.70;1.00;;;;;;5075081;28;20179;-68
2023/06/17 09:04:26;;;;;;;6.68;5.93;;;29.40;1.00;;;;;;5075423;28;20487;-68
2023/06/17 09:06:52;;;;;;;10.32;5.88;;;28.80;1.00;;;;;;5075245;28;20067;-68
2023/06/17 09:09:18;;;;;;;6.32;5.72;;;29.00;1.00;;;;;;5075233;28;20021;-68
2023/06/17 09:11:50;;;;;;;6.95;6.15;;;28.70;1.00;;;;;;5075089;28;20023;-68
2023/06/17 09:14:16;;;;;;;7.40;5.90;;;29.20;1.00;;;;;;5074972;28;20060;-68
2023/06/17 09:16:43;;;;;;;6.95;6.35;;;29.60;1.00;;;;;;5074966;28;20024;-68
2023/06/17 09:19:09;;;;;;;10.55;6.65;;;30.00;1.00;;;;;;5074869;28;20520;-68
2023/06/17 09:21:35;;;;;;;9.15;6.03;;;30.10;1.00;;;;;;5075104;28;20028;-66
2023/06/17 09:24:05;;;;;;;7.25;6.05;;;30.30;1.00;;;;;;5074868;28;20021;-68
2023/06/17 09:26:33;;;;;;;9.77;5.70;;;29.30;1.00;;;;;;5073679;28;20107;-68
2023/06/17 09:29:01;;;;;;;6.50;5.93;;;29.20;1.00;;;;;;5074949;28;20036;-68
2023/06/17 09:31:28;;;;;;;6.05;5.28;;;29.70;1.00;;;;;;5074666;28;20450;-68
2023/06/17 09:33:54;;;;;;;12.23;6.57;;;29.10;1.00;;;;;;5074598;28;20112;-68
2023/06/17 09:36:21;;;;;;;40.33;7.47;;;28.70;1.00;;;;;;5074618;28;20104;-68
2023/06/17 09:38:47;;;;;;;12.52;6.25;;;28.70;1.00;;;;;;5074736;28;20021;-68
2023/06/17 09:41:15;;;;;;;11.52;6.45;;;28.40;1.00;;;;;;5074570;28;20539;-68
2023/06/17 09:43:41;;;;;;;10.90;5.95;;;28.50;1.00;;;;;;5073727;28;20029;-68
2023/06/17 09:46:10;;;;;;;7.38;5.70;;;29.00;1.00;;;;;;5074247;28;20025;-68
2023/06/17 09:48:38;;;;;;;24.02;6.80;;;30.00;1.00;;;;;;5073254;28;20063;-68
2023/06/17 09:51:09;;;;;;;9.20;6.03;;;29.70;1.00;;;;;;5074338;28;20111;-68
2023/06/17 09:53:36;;;;;;;12.23;5.40;;;29.70;1.00;;;;;;5074151;28;20029;-68
2023/06/17 09:56:02;;;;;;;10.35;5.03;;;30.60;1.00;;;;;;5073005;28;20057;-68
2023/06/17 09:58:29;;;;;;;7.75;5.55;;;30.60;1.00;;;;;;5074022;28;20025;-68
2023/06/17 10:00:57;;;;;;;50.15;7.15;;;30.60;1.00;;;;;;5073129;28;20054;-68
2023/06/17 10:03:22;;;;;;;5.85;5.25;;;30.50;1.00;;;;;;5072704;28;20049;-68
2023/06/17 10:06:03;;;;;;;7.10;5.00;;;29.80;1.00;;;;;;5073969;28;20038;-68
2023/06/17 10:08:30;;;;;;;6.28;5.20;;;29.30;1.00;;;;;;5074126;28;20039;-69
2023/06/17 10:11:00;;;;;;;6.03;5.28;;;29.90;1.00;;;;;;5073989;28;20032;-68
2023/06/17 10:13:27;;;;;;;6.82;5.93;;;29.70;1.00;;;;;;5073807;28;20039;-68
2023/06/17 10:15:55;;;;;;;6.22;4.93;;;29.90;1.00;;;;;;5073838;28;20028;-68
2023/06/17 10:18:23;;;;;;;6.00;5.35;;;30.30;1.00;;;;;;5073808;28;20024;-68
2023/06/17 10:20:50;;;;;;;5.97;5.05;;;31.20;1.00;;;;;;5073766;28;20051;-68
2023/06/17 10:23:19;;;;;;;7.93;5.00;;;31.80;1.00;;;;;;5073840;28;20496;-68
2023/06/17 10:25:45;;;;;;;5.35;4.82;;;31.00;1.00;;;;;;5073675;28;20474;-67
2023/06/17 10:28:13;;;;;;;5.40;4.65;;;30.30;1.00;;;;;;5073641;28;20047;-68
2023/06/17 10:30:43;;;;;;;5.32;4.88;;;30.40;1.00;;;;;;5073785;28;20115;-68
2023/06/17 10:33:08;;;;;;;4.75;4.38;;;31.00;1.00;;;;;;5072233;28;20035;-68
2023/06/17 10:38:34;;;;;;;5.45;4.95;;;29.30;1.00;;;;;;5090890;28;20483;-68
2023/06/17 10:41:00;;;;;;;5.50;4.28;;;29.90;1.00;;;;;;5090538;28;20131;-68
2023/06/17 10:43:27;;;;;;;6.75;5.18;;;29.80;1.00;;;;;;5090718;28;20490;-68
2023/06/17 10:45:55;;;;;;;5.68;4.97;;;30.50;1.00;;;;;;5090859;28;20051;-69
2023/06/17 10:48:30;;;;;;;5.43;4.78;;;30.20;1.00;;;;;;5090677;28;20063;-68
2023/06/17 10:51:12;;;;;;;6.43;4.65;;;29.80;1.00;;;;;;5090680;28;20469;-67
2023/06/17 10:53:45;;;;;;;7.00;4.88;;;29.90;1.00;;;;;;5090505;28;20476;-68
2023/06/17 10:56:11;;;;;;;7.15;5.05;;;29.80;1.00;;;;;;5090363;28;20024;-66
2023/06/17 10:58:44;;;;;;;6.30;5.07;;;29.70;1.00;;;;;;5090403;28;20020;-66
2023/06/17 11:01:11;;;;;;;6.45;4.93;;;29.30;1.00;;;;;;5090105;28;20043;-66
2023/06/17 11:03:37;;;;;;;5.63;5.05;;;29.40;1.00;;;;;;5090335;28;20024;-68
2023/06/17 11:06:05;;;;;;;6.68;5.20;;;29.40;1.00;;;;;;5090477;28;20127;-68
2023/06/17 11:08:32;;;;;;;5.82;5.32;;;29.30;1.00;;;;;;5090378;28;20089;-68
2023/06/17 11:11:12;;;;;;;7.65;5.25;;;28.50;1.00;;;;;;5090224;28;20043;-68
2023/06/17 11:13:39;;;;;;;6.22;4.53;;;28.40;1.00;;;;;;5090318;28;20394;-68
2023/06/17 11:16:05;;;;;;;6.25;4.88;;;28.60;1.00;;;;;;5090322;28;20020;-68
2023/06/17 11:18:33;;;;;;;5.90;4.63;;;28.90;1.00;;;;;;5088978;28;20470;-68
2023/06/17 11:20:59;;;;;;;5.97;5.05;;;29.60;1.00;;;;;;5090026;28;20111;-68
2023/06/17 11:23:26;;;;;;;6.43;5.20;;;29.90;1.00;;;;;;5089991;28;20104;-68
2023/06/17 11:25:53;;;;;;;6.28;4.70;;;29.60;1.00;;;;;;5090003;28;20547;-68
2023/06/17 11:28:20;;;;;;;5.22;4.72;;;29.60;1.00;;;;;;5090107;28;20086;-68
2023/06/17 11:30:45;;;;;;;4.88;4.47;;;29.60;1.00;;;;;;5090036;28;20533;-68
2023/06/17 11:33:12;;;;;;;7.85;4.70;;;29.90;1.00;;;;;;5089731;28;20074;-68
2023/06/17 11:35:37;;;;;;;6.55;4.80;;;29.40;1.00;;;;;;5089855;28;20078;-68
2023/06/17 11:38:04;;;;;;;5.75;5.20;;;29.30;1.00;;;;;;5089373;28;20044;-68
2023/06/17 11:40:30;;;;;;;5.45;4.95;;;29.40;1.00;;;;;;5089611;28;20020;-68
2023/06/17 11:42:57;;;;;;;6.65;4.82;;;29.60;1.00;;;;;;5089808;28;20043;-68
2023/06/17 11:45:23;;;;;;;6.70;5.13;;;29.90;1.00;;;;;;5089636;28;20028;-68
2023/06/17 11:47:49;;;;;;;9.40;4.93;;;29.40;1.00;;;;;;5086016;28;20036;-68
2023/06/17 11:50:15;;;;;;;5.88;5.13;;;29.60;1.00;;;;;;5076058;28;20137;-68
2023/06/17 11:52:40;;;;;;;5.53;4.90;;;29.50;1.00;;;;;;5075987;28;20070;-68
2023/06/17 11:55:13;;;;;;;5.97;4.70;;;29.60;1.00;;;;;;5075868;28;20032;-68
2023/06/17 11:57:42;;;;;;;5.53;5.03;;;29.10;1.00;;;;;;5075713;28;20028;-68
2023/06/17 12:00:10;;;;;;;7.03;4.90;;;29.20;1.00;;;;;;5076006;28;20089;-68
2023/06/17 12:02:36;;;;;;;7.00;4.70;;;29.10;1.00;;;;;;5075908;28;20024;-68
2023/06/17 12:05:02;;;;;;;12.13;5.07;;;29.50;1.00;;;;;;5075915;28;20123;-68
2023/06/17 12:07:35;;;;;;;5.80;5.30;;;29.50;1.00;;;;;;5075688;28;20035;-68
2023/06/17 12:10:01;;;;;;;;;;;29.50;1.00;;;;;;5076006;28;20032;-68
2023/06/17 12:12:28;;;;;;;5.30;4.90;;;29.70;1.00;;;;;;5075769;28;19927;-68
2023/06/17 12:15:00;;;;;;;7.88;5.47;;;29.70;1.00;;;;;;5075589;28;20024;-68
2023/06/17 12:17:26;;;;;;;5.72;5.20;;;29.60;1.00;;;;;;5075389;28;20119;-68
2023/06/17 12:19:58;;;;;;;5.90;5.40;;;29.60;1.00;;;;;;5075557;28;20028;-68
2023/06/17 12:22:24;;;;;;;5.97;5.38;;;29.80;1.00;;;;;;5075401;28;20020;-68
2023/06/17 12:24:50;;;;;;;7.78;5.38;;;29.70;1.00;;;;;;5075587;28;20074;-69
2023/06/17 12:27:15;;;;;;;7.07;5.53;;;29.30;1.00;;;;;;5075471;28;20497;-68
2023/06/17 12:29:44;;;;;;;8.18;5.45;;;29.40;1.00;;;;;;5075116;28;20028;-68
2023/06/17 12:32:10;;;;;;;6.35;5.18;;;29.40;1.00;;;;;;5075150;28;20025;-68
2023/06/17 12:34:35;;;;;;;11.82;5.72;;;29.60;1.00;;;;;;5075099;28;20052;-68
2023/06/17 12:37:01;;;;;;;7.47;5.57;;;29.20;1.00;;;;;;5074911;28;20080;-68
2023/06/17 12:39:27;;;;;;;9.68;5.85;;;28.60;1.00;;;;;;5075069;28;20024;-68
2023/06/17 12:41:53;;;;;;;8.45;5.63;;;28.50;1.00;;;;;;5075192;28;20020;-68
2023/06/17 12:44:19;;;;;;;7.18;5.82;;;28.50;1.00;;;;;;5075028;28;20039;-68
2023/06/17 12:46:45;;;;;;;8.32;5.70;;;29.30;1.00;;;;;;5075166;28;20024;-69
2023/06/17 12:49:11;;;;;;;7.50;5.97;;;29.40;1.00;;;;;;5074744;28;20032;-68